Time;durP1;ratioP1;P1;durP2;ratioP2;P2;SDS_P1;SDS_P2;PMS_P1;PMS_P2;Temp;Humidity;BMP_temperature;BMP_pressure;BME280_temperature;BME280_humidity;BME280_pressure;Samples;Min_cycle;Max_cycle;Signal;HPM_P1;HPM_P2
2021/12/05 00:16:48;;;;;;;18.02;6.03;;;;;;;2.67;93.86;99663.19;5278482;28;20080;-80
2021/12/05 00:21:25;;;;;;;18.92;6.05;;;;;;;2.50;93.84;99660.59;5261210;28;20124;-73
2021/12/05 00:24:14;;;;;;;16.13;5.50;;;;;;;2.54;93.42;99658.88;5272499;28;20049;-78
2021/12/05 00:26:53;;;;;;;21.08;5.15;;;;;;;2.57;93.27;99655.44;5279863;28;20067;-79
2021/12/05 00:32:19;;;;;;;15.73;4.90;;;;;;;2.49;93.29;99658.84;5259132;28;20396;-79
2021/12/05 00:35:35;;;;;;;21.40;5.93;;;;;;;2.46;93.96;99664.00;5279073;28;20127;-79
2021/12/05 00:57:32;;;;;;;19.27;6.43;;;;;;;1.97;95.45;99653.56;5222209;28;20614;-74
2021/12/05 01:00:32;;;;;;;21.45;7.30;;;;;;;1.90;95.93;99657.84;5234964;28;20038;-80
2021/12/05 01:14:26;;;;;;;25.15;7.57;;;;;;;1.65;97.13;99664.56;5233487;28;20519;-80
2021/12/05 01:16:58;;;;;;;22.38;7.82;;;;;;;1.65;97.31;99664.56;5233642;28;20132;-75
2021/12/05 01:19:32;;;;;;;31.02;7.93;;;;;;;1.56;97.55;99657.66;5233702;28;20053;-77
2021/12/05 01:22:10;;;;;;;24.50;6.85;;;;;;;1.55;97.84;99665.38;5243894;28;20098;-78
2021/12/05 01:27:29;;;;;;;21.50;6.93;;;;;;;1.53;98.06;99664.47;5254320;28;20037;-78
2021/12/05 01:30:10;;;;;;;20.63;6.80;;;;;;;1.43;98.46;99659.31;5254672;28;20515;-80
2021/12/05 01:38:18;;;;;;;18.42;6.13;;;;;;;1.38;99.12;99662.69;5254213;28;20056;-78
2021/12/05 01:41:38;;;;;;;21.42;5.95;;;;;;;1.29;99.25;99658.34;5254575;28;20024;-78
2021/12/05 02:30:11;;;;;;;19.38;4.80;;;;;;;1.50;99.52;99647.34;5255610;28;20037;-80
2021/12/05 02:35:32;;;;;;;21.07;5.00;;;;;;;1.52;99.88;99635.38;5237520;28;20034;-78
2021/12/05 02:43:44;;;;;;;22.13;5.43;;;;;;;1.45;100.00;99631.91;5178356;28;20046;-75
2021/12/05 02:46:20;;;;;;;18.63;4.55;;;;;;;1.41;100.00;99637.03;5191977;28;20042;-80
2021/12/05 02:48:55;;;;;;;19.50;5.13;;;;;;;1.47;100.00;99641.34;5192408;28;20038;-78
2021/12/05 02:51:29;;;;;;;19.08;5.70;;;;;;;1.43;100.00;99632.75;5191249;28;20117;-73
2021/12/05 02:56:38;;;;;;;12.57;4.70;;;;;;;1.53;100.00;99642.25;5171282;28;20049;-71
2021/12/05 02:59:39;;;;;;;20.40;4.82;;;;;;;1.56;100.00;99639.69;5181583;28;20038;-73
2021/12/05 03:02:15;;;;;;;23.58;5.13;;;;;;;1.64;100.00;99637.13;5171330;28;20047;-77
2021/12/05 03:04:48;;;;;;;22.85;5.03;;;;;;;1.70;100.00;99638.91;5180193;28;20132;-76
2021/12/05 03:07:26;;;;;;;20.05;5.38;;;;;;;1.76;100.00;99639.78;5191586;28;20042;-76
2021/12/05 03:09:57;;;;;;;21.48;4.97;;;;;;;1.82;100.00;99639.81;5180186;28;20435;-80
2021/12/05 03:12:30;;;;;;;20.10;5.27;;;;;;;1.93;99.43;99644.13;5171082;28;20054;-78
2021/12/05 03:15:09;;;;;;;12.90;4.45;;;;;;;1.98;98.99;99640.72;5181255;28;20041;-75
2021/12/05 03:17:42;;;;;;;19.23;5.50;;;;;;;2.00;99.35;99635.59;5230497;28;20052;-76
2021/12/05 03:20:14;;;;;;;21.67;5.57;;;;;;;2.00;98.92;99631.31;5245452;28;20037;-75
2021/12/05 03:22:46;;;;;;;15.60;4.28;;;;;;;2.05;99.01;99628.75;5255698;28;20025;-78
2021/12/05 03:25:18;;;;;;;18.90;4.60;;;;;;;2.00;99.11;99627.88;5267225;28;20047;-76
2021/12/05 03:27:50;;;;;;;15.73;5.83;;;;;;;1.98;99.07;99624.44;5276180;28;20339;-73
2021/12/05 03:30:25;;;;;;;14.70;5.23;;;;;;;2.04;98.98;99631.31;5274191;28;20190;-80
2021/12/05 03:32:57;;;;;;;17.95;5.13;;;;;;;2.03;98.74;99624.44;5276256;28;20279;-77
2021/12/05 03:35:30;;;;;;;15.23;5.77;;;;;;;2.05;98.95;99625.34;5263350;28;20106;-77
2021/12/05 03:38:01;;;;;;;14.85;5.85;;;;;;;2.02;98.83;99630.47;5255217;28;20028;-76
2021/12/05 03:40:33;;;;;;;16.63;6.20;;;;;;;1.99;99.22;99627.00;5254972;28;20033;-76
2021/12/05 03:43:08;;;;;;;13.40;5.33;;;;;;;2.01;99.26;99624.44;5255312;28;20810;-79
2021/12/05 03:45:42;;;;;;;19.95;6.28;;;;;;;2.04;99.29;99623.59;5233878;28;20377;-78
2021/12/05 03:48:14;;;;;;;17.40;6.07;;;;;;;2.11;99.03;99622.75;5242730;28;20022;-77
2021/12/05 03:50:47;;;;;;;15.48;6.22;;;;;;;2.11;99.14;99630.47;5283398;28;20097;-73
2021/12/05 03:53:20;;;;;;;18.42;5.78;;;;;;;2.15;99.16;99627.06;5277816;28;20032;-79
2021/12/05 03:55:54;;;;;;;11.25;5.60;;;;;;;2.28;98.24;99627.97;5256090;28;20031;-77
2021/12/05 03:58:28;;;;;;;11.32;4.90;;;;;;;2.32;98.12;99637.41;5256603;28;20376;-78
2021/12/05 04:01:01;;;;;;;14.57;5.78;;;;;;;2.35;98.01;99624.53;5275413;28;20082;-75
2021/12/05 04:03:35;;;;;;;15.40;5.43;;;;;;;2.40;97.59;99625.41;5275009;28;20055;-78
2021/12/05 04:06:10;;;;;;;17.90;6.05;;;;;;;2.41;97.42;99628.84;5256692;28;20029;-79
2021/12/05 04:08:42;;;;;;;13.35;5.57;;;;;;;2.44;97.44;99634.00;5260739;28;20049;-80
2021/12/05 04:11:26;;;;;;;11.02;5.53;;;;;;;2.45;97.33;99634.00;5279976;28;20060;-76
2021/12/05 04:13:58;;;;;;;11.52;4.55;;;;;;;2.50;96.86;99642.56;5275707;28;20037;-79
2021/12/05 04:16:29;;;;;;;14.33;5.47;;;;;;;2.49;97.02;99633.13;5258547;28;20089;-79
2021/12/05 04:19:02;;;;;;;11.97;4.40;;;;;;;2.53;96.88;99634.03;5270040;28;20024;-77
2021/12/05 04:21:36;;;;;;;15.73;4.97;;;;;;;2.52;96.94;99633.13;5279704;28;20052;-78
2021/12/05 04:24:10;;;;;;;13.50;4.57;;;;;;;2.53;96.98;99624.56;5267229;28;20407;-79
2021/12/05 04:26:42;;;;;;;15.00;4.97;;;;;;;2.57;97.12;99640.03;5258572;28;20044;-72
2021/12/05 04:29:15;;;;;;;10.97;4.80;;;;;;;2.58;96.52;99640.03;5270614;28;20059;-72
2021/12/05 04:31:47;;;;;;;11.13;4.57;;;;;;;2.57;96.63;99632.31;5275134;28;20078;-78
2021/12/05 04:34:19;;;;;;;9.57;4.15;;;;;;;2.58;96.58;99632.31;5258127;28;20419;-80
2021/12/05 04:36:56;;;;;;;11.13;5.17;;;;;;;2.61;96.51;99632.31;5261531;28;20032;-78
2021/12/05 04:39:28;;;;;;;17.10;4.88;;;;;;;2.62;96.78;99635.72;5279467;28;20028;-76
2021/12/05 04:42:00;;;;;;;15.88;4.80;;;;;;;2.62;96.85;99641.72;5274865;28;20032;-77
2021/12/05 04:44:32;;;;;;;9.00;3.80;;;;;;;2.63;96.57;99643.44;5258464;28;20025;-75
2021/12/05 04:47:05;;;;;;;8.63;4.00;;;;;;;2.66;96.38;99640.88;5261611;28;20016;-76
2021/12/05 04:49:39;;;;;;;13.30;4.05;;;;;;;2.65;96.75;99639.16;5278430;28;20020;-75
2021/12/05 04:52:11;;;;;;;10.25;3.78;;;;;;;2.65;96.76;99634.00;5274971;28;20025;-78
2021/12/05 04:54:43;;;;;;;16.27;4.25;;;;;;;2.66;97.16;99630.59;5258010;28;20033;-74
2021/12/05 04:57:15;;;;;;;10.73;4.47;;;;;;;2.64;97.13;99646.88;5266299;28;20055;-76
2021/12/05 04:59:50;;;;;;;8.23;4.27;;;;;;;2.66;96.80;99646.03;5267396;28;20024;-70
2021/12/05 05:02:22;;;;;;;15.18;5.28;;;;;;;2.62;97.44;99630.59;5278505;28;20075;-74
2021/12/05 05:04:54;;;;;;;14.00;4.68;;;;;;;2.60;97.65;99625.44;5266633;28;20421;-75
2021/12/05 05:07:27;;;;;;;16.02;4.38;;;;;;;2.61;97.95;99626.28;5274679;28;20104;-75
2021/12/05 05:10:05;;;;;;;14.35;5.18;;;;;;;2.57;98.46;99635.72;5258221;28;20056;-79
2021/12/05 05:12:36;;;;;;;11.85;4.03;;;;;;;2.53;98.63;99631.44;5259034;28;20036;-77
2021/12/05 05:15:09;;;;;;;9.97;3.93;;;;;;;2.53;99.08;99634.88;5278061;28;20032;-77
2021/12/05 05:17:41;;;;;;;8.95;4.05;;;;;;;2.51;98.78;99640.84;5272833;28;20033;-76
2021/12/05 05:20:39;;;;;;;8.40;3.77;;;;;;;2.51;99.11;99638.28;5278250;28;20035;-74
2021/12/05 05:50:22;;;;;;;4.30;2.38;;;;;;;2.37;98.63;99671.72;5278570;28;20024;-75
2021/12/05 05:52:54;;;;;;;4.80;2.45;;;;;;;2.33;98.52;99675.13;5267486;28;20560;-76
2021/12/05 05:55:25;;;;;;;6.83;2.50;;;;;;;2.27;98.33;99669.94;5258320;28;20064;-77
2021/12/05 06:00:34;;;;;;;7.03;2.80;;;;;;;2.13;99.46;99672.50;5279569;28;20119;-78
2021/12/05 06:03:21;;;;;;;3.83;2.50;;;;;;;2.10;100.00;99677.63;5251204;28;20076;-74
2021/12/05 06:05:53;;;;;;;4.38;2.55;;;;;;;2.01;99.64;99668.13;5267805;28;20254;-75
2021/12/05 06:08:28;;;;;;;4.77;2.43;;;;;;;1.99;99.87;99682.69;5272647;28;20092;-77
2021/12/05 06:11:03;;;;;;;4.45;2.55;;;;;;;1.96;100.00;99672.41;5263560;28;20454;-76
2021/12/05 06:13:36;;;;;;;4.07;2.33;;;;;;;1.94;100.00;99686.97;5272344;28;20401;-78
2021/12/05 06:16:10;;;;;;;6.68;3.00;;;;;;;1.94;100.00;99681.84;5279191;28;20432;-73
2021/12/05 06:18:42;;;;;;;4.68;2.50;;;;;;;1.91;100.00;99679.25;5263252;28;20568;-78
2021/12/05 06:21:15;;;;;;;3.50;2.55;;;;;;;1.91;100.00;99692.09;5257053;28;20072;-79
2021/12/05 06:23:46;;;;;;;8.45;3.25;;;;;;;1.91;100.00;99690.38;5257669;28;20029;-76
2021/12/05 06:26:21;;;;;;;5.87;3.10;;;;;;;1.91;100.00;99684.38;5248756;28;20089;-82
2021/12/05 06:29:19;;;;;;;6.18;2.78;;;;;;;1.89;100.00;99693.81;5277536;28;20104;-77
2021/12/05 06:32:14;;;;;;;5.43;2.63;;;;;;;1.91;100.00;99695.50;5262264;28;20091;-74
2021/12/05 06:37:49;;;;;;;4.72;2.83;;;;;;;1.93;100.00;99703.22;5257077;28;20519;-81
2021/12/05 06:43:02;;;;;;;8.43;3.67;;;;;;;1.96;100.00;99708.38;5255589;28;20781;-76
2021/12/05 06:48:23;;;;;;;5.97;3.47;;;;;;;1.97;100.00;99712.69;5257157;28;20778;-78
2021/12/05 06:50:54;;;;;;;5.43;3.27;;;;;;;1.98;100.00;99716.97;5254532;28;20112;-77
2021/12/05 06:53:26;;;;;;;5.03;3.27;;;;;;;2.01;100.00;99711.84;5254073;28;20111;-80
2021/12/05 06:55:57;;;;;;;5.57;3.20;;;;;;;1.99;100.00;99721.25;5261635;28;20040;-73
2021/12/05 06:58:31;;;;;;;5.70;3.27;;;;;;;2.00;100.00;99717.84;5275805;28;20093;-73
2021/12/05 07:01:06;;;;;;;5.95;3.30;;;;;;;2.03;100.00;99732.41;5266572;28;20489;-78
2021/12/05 07:03:42;;;;;;;5.90;3.75;;;;;;;2.06;100.00;99729.84;5255020;28;20051;-83
2021/12/05 07:06:22;;;;;;;10.95;3.70;;;;;;;2.10;100.00;99736.75;5253460;28;20466;-81
2021/12/05 07:09:00;;;;;;;5.00;3.28;;;;;;;2.10;100.00;99745.31;5254929;28;20024;-79
2021/12/05 07:11:39;;;;;;;7.00;4.40;;;;;;;2.12;100.00;99751.31;5269836;28;20021;-78
2021/12/05 07:17:07;;;;;;;6.45;4.15;;;;;;;2.16;100.00;99757.34;5277023;28;20048;-77
2021/12/05 07:22:40;;;;;;;6.15;3.92;;;;;;;2.19;100.00;99757.38;5253855;28;20026;-84
2021/12/05 07:25:24;;;;;;;5.60;4.45;;;;;;;2.22;100.00;99761.63;5246999;28;20029;-82
2021/12/05 07:42:21;;;;;;;6.55;4.38;;;;;;;2.36;100.00;99775.44;5173205;28;20031;-84
2021/12/05 07:44:54;;;;;;;5.93;4.40;;;;;;;2.39;100.00;99783.16;5175046;28;20115;-80
2021/12/05 07:47:30;;;;;;;8.52;4.65;;;;;;;2.44;100.00;99784.03;5176186;28;20105;-82
2021/12/05 07:50:08;;;;;;;6.10;4.57;;;;;;;2.43;100.00;99795.19;5180786;28;20046;-84
2021/12/05 07:52:44;;;;;;;8.02;4.75;;;;;;;2.43;100.00;99797.75;5185502;28;20505;-83
2021/12/05 07:55:24;;;;;;;6.95;3.95;;;;;;;2.45;100.00;99802.91;5193095;28;20143;-80
2021/12/05 08:14:38;;;;;;;7.15;3.60;;;;;;;2.58;99.67;99809.81;5276467;28;20037;-84
2021/12/05 08:17:17;;;;;;;5.55;3.83;;;;;;;2.61;99.83;99817.56;5280350;28;20604;-85
2021/12/05 08:19:48;;;;;;;7.43;3.90;;;;;;;2.63;99.73;99826.13;5259491;28;20078;-83
2021/12/05 08:22:20;;;;;;;7.53;4.47;;;;;;;2.65;99.95;99819.28;5269356;28;20041;-86
2021/12/05 08:24:51;;;;;;;5.40;4.23;;;;;;;2.65;99.69;99813.28;5294768;28;20024;-81
2021/12/05 08:27:23;;;;;;;5.50;4.10;;;;;;;2.68;99.90;99821.84;5293413;28;20027;-84
2021/12/05 08:29:57;;;;;;;12.67;6.23;;;;;;;2.70;99.59;99816.72;5289576;28;20017;-86
2021/12/05 08:32:45;;;;;;;7.82;4.07;;;;;;;2.73;99.87;99832.19;5283018;28;20433;-81
2021/12/05 09:20:40;;;;;;;8.18;5.03;;;;;;;2.85;98.57;99881.13;5210050;28;20121;-84
2021/12/05 09:26:01;;;;;;;13.02;8.30;;;;;;;2.89;98.54;99890.56;5191059;28;20417;-89
2021/12/05 09:29:01;;;;;;;;;;;;;;;2.94;98.64;99888.03;5209767;28;20042;-74
2021/12/05 10:15:46;;;;;;;13.88;9.50;;;;;;;2.74;100.00;99962.59;5276863;28;20410;-79
2021/12/05 10:26:22;;;;;;;11.65;9.10;;;;;;;2.76;100.00;99957.44;5239708;28;20449;-89
2021/12/05 10:27:22;;;;;;;21.88;19.30;;;;;;;2.84;100.00;99969.50;5281851;28;20032;-86
2021/12/05 10:38:26;;;;;;;8.18;7.35;;;;;;;2.91;100.00;99989.28;5278019;28;20484;-89
2021/12/05 10:43:48;;;;;;;14.05;11.43;;;;;;;2.94;100.00;99979.84;5270054;28;20040;-82
2021/12/05 10:46:22;;;;;;;12.00;8.35;;;;;;;2.94;100.00;99979.84;5280666;28;20025;-79
2021/12/05 10:49:02;;;;;;;8.63;7.32;;;;;;;2.95;100.00;99981.53;5273108;28;20512;-86
2021/12/05 10:51:42;;;;;;;8.77;6.78;;;;;;;2.99;100.00;99983.31;5267938;28;20021;-72
2021/12/05 10:54:19;;;;;;;19.77;16.45;;;;;;;3.03;100.00;99995.34;5275071;28;20032;-78
2021/12/05 10:56:57;;;;;;;21.98;19.50;;;;;;;3.06;99.64;99992.78;5288606;28;20028;-77
2021/12/05 10:59:39;;;;;;;8.68;6.95;;;;;;;3.09;99.42;100000.50;5288545;28;20020;-82
2021/12/05 11:02:16;;;;;;;13.82;8.38;;;;;;;3.13;98.48;100003.97;5294568;28;20052;-69
2021/12/05 11:04:49;;;;;;;6.38;5.35;;;;;;;3.15;98.23;100000.53;5274741;28;20043;-75
2021/12/05 11:07:23;;;;;;;4.88;4.40;;;;;;;3.14;97.03;100004.00;5266836;28;20025;-83
2021/12/05 11:09:57;;;;;;;5.78;4.35;;;;;;;3.20;96.78;100001.41;5284580;28;20034;-78
2021/12/05 11:12:33;;;;;;;13.60;10.23;;;;;;;3.33;96.57;100001.47;5266638;28;20090;-85
2021/12/05 11:15:10;;;;;;;9.73;6.70;;;;;;;3.51;96.43;100001.56;5262844;28;20083;-71
2021/12/05 11:17:43;;;;;;;9.88;7.10;;;;;;;3.69;95.48;99994.72;5263009;28;20033;-81
2021/12/05 11:20:28;;;;;;;8.32;5.13;;;;;;;3.73;94.37;99997.31;5263652;28;20570;-72
2021/12/05 11:23:00;;;;;;;9.85;8.07;;;;;;;3.72;93.97;100000.78;5246283;28;20424;-81
2021/12/05 11:25:35;;;;;;;5.97;5.10;;;;;;;3.73;94.16;100002.47;5282443;28;20029;-78
2021/12/05 11:28:08;;;;;;;8.00;6.03;;;;;;;3.69;93.52;99997.28;5282130;28;20074;-82
2021/12/05 11:30:40;;;;;;;;;;;;;;;3.83;94.07;100011.09;5263153;28;20029;-89
2021/12/05 11:33:19;;;;;;;7.00;5.32;;;;;;;3.75;93.91;100011.09;5262128;28;19909;-87
2021/12/05 11:35:55;;;;;;;6.35;5.00;;;;;;;3.70;93.07;100014.50;5261940;28;20795;-88
2021/12/05 11:38:34;;;;;;;4.82;3.70;;;;;;;3.64;93.10;100013.63;5262027;28;20070;-77
2021/12/05 11:41:12;;;;;;;3.42;3.13;;;;;;;3.57;93.02;100027.34;5270854;28;20084;-82
2021/12/05 11:43:46;;;;;;;8.55;6.82;;;;;;;3.48;92.98;100027.31;5268037;28;20024;-83
2021/12/05 11:46:28;;;;;;;5.50;4.88;;;;;;;3.49;93.35;100025.59;5270363;28;20665;-72
2021/12/05 11:49:03;;;;;;;5.30;4.38;;;;;;;3.46;93.49;100031.59;5294290;28;20091;-74
2021/12/05 11:51:40;;;;;;;8.05;7.22;;;;;;;3.42;93.33;100035.03;5298937;28;20035;-71
2021/12/05 11:54:13;;;;;;;6.63;5.75;;;;;;;3.47;93.94;100041.91;5278553;28;20194;-70
2021/12/05 11:56:50;;;;;;;11.45;10.25;;;;;;;3.58;94.15;100047.09;5271213;28;20040;-80
2021/12/05 11:59:42;;;;;;;7.75;6.95;;;;;;;3.65;93.58;100042.84;5286196;28;20032;-75
2021/12/05 12:02:19;;;;;;;12.25;7.03;;;;;;;3.69;93.28;100051.44;5290867;28;20462;-72
2021/12/05 12:05:14;;;;;;;5.72;5.13;;;;;;;3.69;92.78;100046.28;5252338;28;20059;-73
2021/12/05 12:08:00;;;;;;;8.45;6.40;;;;;;;3.68;92.96;100054.88;5253077;28;20039;-73
2021/12/05 12:10:39;;;;;;;6.45;5.03;;;;;;;3.65;91.98;100051.44;5292648;28;20025;-72
2021/12/05 12:13:21;;;;;;;6.00;5.30;;;;;;;3.72;92.70;100060.06;5287773;28;20032;-83
2021/12/05 12:15:59;;;;;;;6.40;5.47;;;;;;;3.76;93.01;100055.75;5263495;28;20036;-87
2021/12/05 12:18:34;;;;;;;20.55;18.45;;;;;;;3.69;92.12;100057.47;5245656;28;20032;-83
2021/12/05 12:21:42;;;;;;;5.85;4.35;;;;;;;3.71;92.97;100054.91;5262076;28;20052;-89
2021/12/05 12:24:15;;;;;;;5.18;4.63;;;;;;;3.83;93.61;100049.75;5218528;28;20053;-79
2021/12/05 12:26:50;;;;;;;7.00;5.72;;;;;;;3.84;92.00;100054.91;5217770;28;20062;-76
2021/12/05 12:29:24;;;;;;;24.70;14.63;;;;;;;3.86;91.59;100060.09;5220088;28;20033;-93
2021/12/05 12:32:02;;;;;;;6.68;5.97;;;;;;;3.85;90.79;100063.53;5215211;28;20079;-74
2021/12/05 12:34:34;;;;;;;8.18;7.38;;;;;;;3.89;91.69;100060.09;5217132;28;20587;-87
2021/12/05 12:37:06;;;;;;;38.20;31.10;;;;;;;3.91;90.29;100066.13;5213278;28;20030;-83
2021/12/05 12:39:45;;;;;;;6.60;5.90;;;;;;;3.92;90.59;100078.16;5228882;28;20863;-70
2021/12/05 12:42:28;;;;;;;6.65;5.57;;;;;;;3.94;90.47;100071.28;5219957;28;21084;-81
2021/12/05 12:45:05;;;;;;;14.52;12.50;;;;;;;3.97;90.51;100079.03;5217350;28;20073;-83
2021/12/05 12:47:46;;;;;;;12.13;10.35;;;;;;;3.93;90.63;100081.59;5217379;28;20104;-86
2021/12/05 12:50:28;;;;;;;16.38;12.10;;;;;;;3.94;90.95;100086.75;5223742;28;20069;-89
2021/12/05 12:53:38;;;;;;;7.72;7.00;;;;;;;3.91;91.14;100084.19;5218739;28;20697;-76
2021/12/05 12:56:19;;;;;;;10.45;9.23;;;;;;;3.88;90.83;100086.75;5269654;28;20101;-87
2021/12/05 12:59:00;;;;;;;32.10;25.70;;;;;;;3.87;90.66;100090.19;5252112;28;20029;-70
2021/12/05 13:02:03;;;;;;;20.00;17.08;;;;;;;3.91;90.98;100099.66;5259666;28;20088;-71
2021/12/05 13:10:40;;;;;;;10.05;8.50;;;;;;;3.85;90.69;100107.38;5260551;28;20071;-74
2021/12/05 13:13:28;;;;;;;11.90;10.60;;;;;;;3.93;91.13;100097.06;5261143;28;20140;-71
2021/12/05 13:16:20;;;;;;;19.67;14.52;;;;;;;3.91;90.75;100107.41;5267329;28;20067;-76
2021/12/05 13:18:59;;;;;;;10.13;9.13;;;;;;;3.88;90.83;100120.28;5270190;28;20028;-74
2021/12/05 13:21:38;;;;;;;8.10;7.30;;;;;;;3.74;89.76;100109.88;5265347;28;20021;-82
2021/12/05 13:24:17;;;;;;;9.88;8.40;;;;;;;3.79;90.44;100115.91;5256307;28;20025;-80
2021/12/05 13:26:49;;;;;;;7.57;6.88;;;;;;;3.75;89.91;100114.22;5251321;28;20088;-77
2021/12/05 13:29:25;;;;;;;9.35;8.10;;;;;;;3.64;89.91;100123.59;5290288;28;20020;-78
2021/12/05 13:32:10;;;;;;;8.93;7.90;;;;;;;3.66;91.21;100127.03;5268710;28;20411;-76
2021/12/05 13:34:42;;;;;;;15.35;13.13;;;;;;;3.74;91.43;100129.66;5252387;28;20507;-85
2021/12/05 13:37:13;;;;;;;37.00;24.43;;;;;;;3.79;91.61;100135.69;5274847;28;20044;-86
2021/12/05 13:40:06;;;;;;;240.70;169.43;;;;;;;3.76;90.79;100138.25;5258506;28;20244;-79
2021/12/05 13:42:43;;;;;;;36.17;26.83;;;;;;;3.70;90.97;100143.38;5277189;28;20032;-82
2021/12/05 13:45:17;;;;;;;16.75;13.75;;;;;;;3.74;91.59;100147.72;5280671;28;20032;-76
2021/12/05 13:47:51;;;;;;;13.32;12.02;;;;;;;3.76;92.02;100151.16;5266026;28;20045;-82
2021/12/05 13:50:46;;;;;;;9.85;8.32;;;;;;;3.64;91.00;100160.53;5274577;28;20558;-71
2021/12/05 13:53:27;;;;;;;10.18;9.23;;;;;;;3.59;91.22;100157.09;5247566;28;20029;-71
2021/12/05 13:56:07;;;;;;;9.80;8.82;;;;;;;3.63;91.12;100157.97;5255747;28;20036;-74
2021/12/05 13:58:44;;;;;;;17.67;15.88;;;;;;;3.68;91.17;100156.25;5285227;28;20120;-84
2021/12/05 14:01:20;;;;;;;8.80;7.90;;;;;;;3.75;91.22;100157.16;5272753;28;20488;-78
2021/12/05 14:03:51;;;;;;;7.88;7.07;;;;;;;3.79;90.74;100161.47;5262740;28;20060;-76
2021/12/05 14:06:42;;;;;;;8.13;7.33;;;;;;;3.85;90.51;100164.09;5265772;28;20041;-78
2021/12/05 14:09:35;;;;;;;7.70;6.90;;;;;;;3.83;89.74;100169.22;5262540;28;20052;-79
2021/12/05 14:12:09;;;;;;;8.63;7.80;;;;;;;3.86;90.16;100168.38;5259859;28;20476;-81
2021/12/05 14:15:02;;;;;;;25.25;18.40;;;;;;;3.91;90.28;100174.44;5257503;28;20295;-82
2021/12/05 14:17:42;;;;;;;7.85;6.97;;;;;;;3.88;89.57;100179.56;5276522;28;20120;-86
2021/12/05 14:20:25;;;;;;;8.32;6.75;;;;;;;3.89;90.51;100191.59;5279743;28;20024;-82
2021/12/05 14:22:57;;;;;;;8.10;6.80;;;;;;;3.88;90.38;100184.72;5244604;28;20330;-72
2021/12/05 14:25:32;;;;;;;22.67;20.40;;;;;;;3.87;89.41;100185.56;5258769;28;20144;-83
2021/12/05 14:28:04;;;;;;;7.60;6.80;;;;;;;3.86;89.74;100199.31;5238483;28;20320;-75
2021/12/05 14:30:36;;;;;;;10.00;6.10;;;;;;;3.81;88.27;100204.44;5273012;28;20035;-77
2021/12/05 14:33:07;;;;;;;6.10;5.50;;;;;;;3.84;89.07;100219.94;5277878;28;20179;-80
2021/12/05 14:35:40;;;;;;;7.70;6.97;;;;;;;3.82;89.60;100221.66;5265429;28;20039;-79
2021/12/05 14:38:12;;;;;;;;;;;;;;;3.90;90.40;100234.59;5256895;28;20029;-84
2021/12/05 14:40:43;;;;;;;11.82;10.27;;;;;;;3.80;90.75;100237.94;5268935;28;19987;-77
2021/12/05 14:43:19;;;;;;;12.80;10.63;;;;;;;3.81;91.29;100242.25;5255238;28;20108;-80
2021/12/05 14:45:51;;;;;;;11.60;10.15;;;;;;;3.75;91.99;100239.63;5272156;28;20029;-84
2021/12/05 14:48:22;;;;;;;12.30;10.00;;;;;;;3.76;91.20;100244.81;5275411;28;20044;-81
2021/12/05 14:50:53;;;;;;;22.03;19.67;;;;;;;3.78;90.98;100244.81;5260079;28;20032;-85
2021/12/05 14:53:25;;;;;;;15.93;14.33;;;;;;;3.75;90.66;100256.00;5258376;28;20033;-84
2021/12/05 14:55:58;;;;;;;15.50;12.60;;;;;;;3.77;91.83;100246.53;5258635;28;20037;-85
2021/12/05 14:58:30;;;;;;;7.97;7.18;;;;;;;3.74;89.54;100268.88;5255015;28;20533;-73
2021/12/05 15:01:02;;;;;;;14.23;11.98;;;;;;;3.73;90.41;100259.41;5276389;28;20024;-77
2021/12/05 15:03:34;;;;;;;18.70;15.07;;;;;;;3.70;90.98;100273.13;5276133;28;20105;-79
2021/12/05 15:06:07;;;;;;;11.30;10.10;;;;;;;3.69;92.31;100267.94;5256679;28;20384;-78
2021/12/05 15:08:40;;;;;;;9.18;8.10;;;;;;;3.62;92.40;100275.66;5255687;28;20040;-82
2021/12/05 15:11:11;;;;;;;8.57;7.78;;;;;;;3.65;92.83;100285.13;5256940;28;20365;-84
2021/12/05 15:13:43;;;;;;;8.70;7.80;;;;;;;3.66;93.47;100294.59;5258929;28;20029;-80
2021/12/05 15:16:14;;;;;;;9.50;8.60;;;;;;;3.61;93.94;100291.13;5244843;28;20082;-79
2021/12/05 15:18:46;;;;;;;9.10;7.53;;;;;;;3.61;93.93;100299.69;5259113;28;20385;-74
2021/12/05 15:21:17;;;;;;;9.90;7.23;;;;;;;3.60;94.29;100302.25;5256934;28;20291;-87
2021/12/05 15:23:49;;;;;;;9.77;7.70;;;;;;;3.56;94.23;100308.22;5239491;28;20139;-84
2021/12/05 15:26:21;;;;;;;8.67;7.87;;;;;;;3.52;94.30;100309.06;5276283;28;20032;-83
2021/12/05 15:29:01;;;;;;;9.37;8.17;;;;;;;3.50;94.14;100315.94;5293632;28;20162;-74
2021/12/05 15:31:39;;;;;;;7.68;6.88;;;;;;;3.49;94.16;100322.78;5271983;28;20283;-72
2021/12/05 15:34:29;;;;;;;8.35;7.53;;;;;;;3.54;94.10;100328.88;5267938;28;20033;-78
2021/12/05 15:37:08;;;;;;;9.07;7.70;;;;;;;3.53;94.81;100334.00;5292036;28;20039;-84
2021/12/05 15:39:43;;;;;;;8.48;7.55;;;;;;;3.47;94.47;100338.22;5291218;28;20017;-76
2021/12/05 15:42:20;;;;;;;8.65;7.75;;;;;;;3.50;94.31;100342.56;5289021;28;20029;-83
2021/12/05 15:44:56;;;;;;;9.88;7.65;;;;;;;3.51;94.62;100353.72;5277414;28;20071;-83
2021/12/05 15:47:31;;;;;;;8.70;7.65;;;;;;;3.44;94.78;100347.66;5256982;28;20523;-78
2021/12/05 15:50:11;;;;;;;8.95;8.05;;;;;;;3.46;94.85;100357.13;5250812;28;20023;-93
2021/12/05 15:52:48;;;;;;;8.75;7.85;;;;;;;3.39;94.54;100359.63;5280443;28;20394;-92
2021/12/05 15:55:25;;;;;;;8.57;7.68;;;;;;;3.40;95.02;100372.53;5271529;28;20032;-91
2021/12/05 15:58:06;;;;;;;8.27;7.47;;;;;;;3.39;95.11;100363.06;5260324;28;20119;-91
2021/12/05 16:00:43;;;;;;;8.23;7.30;;;;;;;3.36;94.99;100375.91;5265330;28;20032;-92
2021/12/05 16:03:26;;;;;;;9.82;7.78;;;;;;;3.41;95.41;100378.53;5261810;28;20055;-91
2021/12/05 16:06:00;;;;;;;8.90;7.95;;;;;;;3.40;95.28;100389.72;5281739;28;20042;-80
2021/12/05 16:08:32;;;;;;;8.30;7.50;;;;;;;3.37;95.60;100387.97;5286628;28;20099;-90
2021/12/05 16:11:16;;;;;;;7.93;6.70;;;;;;;3.39;96.21;100393.97;5264334;28;20032;-90
2021/12/05 16:13:52;;;;;;;7.95;7.15;;;;;;;3.36;95.96;100393.94;5263561;28;20490;-88
2021/12/05 16:16:28;;;;;;;8.45;7.53;;;;;;;3.39;96.31;100393.13;5283399;28;20032;-88
2021/12/05 16:19:02;;;;;;;8.25;7.40;;;;;;;3.35;96.26;100396.50;5285393;28;20032;-89
2021/12/05 16:21:36;;;;;;;8.52;7.63;;;;;;;3.37;96.56;100407.72;5296846;28;20020;-76
2021/12/05 16:24:17;;;;;;;9.00;7.55;;;;;;;3.35;96.75;100414.53;5284642;28;20110;-88
2021/12/05 16:26:50;;;;;;;9.00;7.63;;;;;;;3.37;96.30;100424.03;5261153;28;20476;-82
2021/12/05 16:29:27;;;;;;;8.73;7.80;;;;;;;3.39;96.31;100431.78;5264595;28;20109;-83
2021/12/05 16:31:59;;;;;;;11.68;8.57;;;;;;;3.32;95.99;100429.97;5262113;28;20043;-88
2021/12/05 16:34:34;;;;;;;10.23;8.13;;;;;;;3.33;95.84;100435.13;5278369;28;20021;-88
2021/12/05 16:37:10;;;;;;;9.00;8.07;;;;;;;3.38;96.66;100435.19;5269362;28;20282;-89
2021/12/05 16:39:45;;;;;;;10.57;8.00;;;;;;;3.30;96.39;100435.13;5271045;28;20029;-84
2021/12/05 16:42:21;;;;;;;11.73;9.13;;;;;;;3.36;96.60;100437.75;5252260;28;20036;-82
2021/12/05 16:44:58;;;;;;;9.02;7.72;;;;;;;3.29;96.63;100452.28;5286142;28;20035;-87
2021/12/05 16:47:31;;;;;;;9.45;7.68;;;;;;;3.31;97.04;100447.13;5275703;28;20154;-82
2021/12/05 16:50:07;;;;;;;8.82;7.93;;;;;;;3.31;97.09;100451.44;5269389;28;20032;-87
2021/12/05 16:52:46;;;;;;;10.13;7.63;;;;;;;3.35;97.40;100450.59;5264298;28;20047;-86
2021/12/05 16:55:22;;;;;;;9.00;8.10;;;;;;;3.31;97.19;100454.88;5277913;28;20024;-88
2021/12/05 16:58:14;;;;;;;9.00;7.80;;;;;;;3.30;97.54;100453.16;5279766;28;20040;-83
2021/12/05 17:00:52;;;;;;;12.05;8.25;;;;;;;3.32;97.64;100459.19;5264115;28;20881;-79
2021/12/05 17:03:26;;;;;;;9.25;7.70;;;;;;;3.34;97.61;100460.06;5271617;28;20053;-78
2021/12/05 17:06:05;;;;;;;10.52;8.18;;;;;;;3.33;97.60;100457.47;5269885;28;20385;-85
2021/12/05 17:08:44;;;;;;;10.90;8.95;;;;;;;3.33;96.98;100460.91;5278401;28;20051;-89
2021/12/05 17:11:21;;;;;;;12.15;9.80;;;;;;;3.34;97.04;100464.34;5281239;28;20042;-88
2021/12/05 17:13:55;;;;;;;10.18;8.57;;;;;;;3.29;97.07;100472.88;5266376;28;20049;-86
2021/12/05 17:16:29;;;;;;;8.98;8.00;;;;;;;3.27;97.27;100482.31;5264819;28;20036;-83
2021/12/05 17:19:06;;;;;;;8.60;7.53;;;;;;;3.27;97.54;100484.91;5278762;28;20021;-85
2021/12/05 17:21:47;;;;;;;10.18;8.18;;;;;;;3.34;97.74;100496.13;5272530;28;20024;-80
2021/12/05 17:24:26;;;;;;;9.30;7.90;;;;;;;3.34;97.94;100492.69;5271089;28;20048;-84